• Join FlightAware (Why Join?)
  • Login
  • US Flag 
12:11AM EDT


 

Airport Tracker/Info


-or-


 

Live Flight TrackerFlight Track Log ✈ BJS621 ✈ 03-May-2013 ✈ KSGR - KDFW

Flight Track Log - Related Links

Times and Time Zones

All times are in EDT time to prevent confusion due to time zone crossing. See the BJS621 flight status page for this flight to view local times or setup timezone preferences in your user account.

Time Position Orientation Groundspeed Altitude Reporting Facility
EDT Latitude Longitude Course Direction KTS MPH feet Rate Location/Type
07:51AM 29.6333 -95.6594 North 125 144 1,000  Level Houston Center
07:52AM 29.6817 -95.6586 North 174 200 4,500 2,820 Climbing Houston Center
07:52AM 29.6889 -95.6600 351° North 160 184 5,000 2,400 Climbing Houston Center
07:53AM 29.7508 -95.6531 North 218 251 7,700 2,820 Climbing Houston Center
07:54AM 29.8275 -95.6228 19° North 287 330 10,800 3,300 Climbing Houston Center
07:55AM 29.9175 -95.5889 18° North 336 387 14,500 2,760 Climbing Houston Center
07:56AM 30.0189 -95.5342 25° Northeast 403 464 16,500 2,400 Climbing Houston Center
07:57AM 30.1331 -95.4314 38° Northeast 429 494 19,400 3,360 Climbing Houston Center
07:58AM 30.2386 -95.3611 30° Northeast 439 505 23,400 3,600 Climbing Houston Center
07:59AM 30.3467 -95.3508 North 392 451 26,900 2,820 Climbing Houston Center
08:00AM 30.4483 -95.3428 North 389 448 29,300 1,500 Climbing Houston Center
08:01AM 30.5656 -95.3306 North 411 473 30,000 300 Climbing Houston Center
08:02AM 30.6967 -95.3186 North 461 531 30,000  Level Houston Center
08:03AM 30.8556 -95.3031 North 472 543 30,000  Level Houston Center
08:04AM 30.9886 -95.2911 North 473 544 30,000  Level Houston Center
08:05AM 31.1203 -95.2781 North 470 541 30,000  Level Houston Center
08:06AM 31.1722 -95.2769 North 474 545 30,000 -360 Level Fort Worth Center
08:07AM 31.3036 -95.2617 North 474 545 29,500 -780 Descending Fort Worth Center
08:08AM 31.4225 -95.2564 North 453 521 28,500 -960 Descending Fort Worth Center
08:09AM 31.5436 -95.2511 North 432 497 27,600 -960 Descending Fort Worth Center
08:10AM 31.6506 -95.2853 345° North 420 483 26,600 -1,020 Descending Fort Worth Center
08:11AM 31.7189 -95.3717 313° West 360 414 25,600 -960 Descending Fort Worth Center
08:12AM 31.7789 -95.4753 304° West 366 421 24,700 -840 Descending Fort Worth Center
08:13AM 31.8389 -95.5817 304° West 377 434 24,000 -360 Descending Fort Worth Center
08:14AM 31.8925 -95.6833 302° West 377 434 24,000  Level Fort Worth Center
08:15AM 31.9481 -95.7853 303° West 372 428 24,000  Level Fort Worth Center
08:16AM 32.0036 -95.8872 303° West 372 428 24,000  Level Fort Worth Center
08:17AM 32.0569 -95.9794 304° West 360 414 24,000  Level Fort Worth Center
08:18AM 32.1125 -96.0817 303° West 360 414 24,000 -1,560 Level Fort Worth Center
08:19AM 32.1633 -96.1789 302° West 360 414 20,900 -3,240 Descending Fort Worth Center
08:20AM 32.2292 -96.2689 311° West 345 397 17,600 -3,000 Descending Fort Worth Center
08:21AM 32.2922 -96.3442 315° West 331 381 14,900 -2,880 Descending Fort Worth Center
08:22AM 32.3472 -96.4075 316° Northwest 294 338 11,900 -2,040 Descending Fort Worth Center
08:23AM 32.4019 -96.4661 318° Northwest 275 316 10,900 -1,080 Descending Fort Worth Center
08:24AM 32.4567 -96.5222 319° Northwest 264 304 9,800 -1,080 Descending Fort Worth Center
08:25AM 32.5069 -96.5758 318° Northwest 258 297 8,800 -960 Descending Fort Worth Center
08:26AM 32.5511 -96.6222 318° Northwest 252 290 7,900 -1,200 Descending Fort Worth Center
08:27AM 32.6058 -96.6786 319° Northwest 236 272 6,500 -1,500 Descending Fort Worth Center
08:28AM 32.6500 -96.7225 320° Northwest 236 272 5,000 -1,560 Descending Fort Worth Center
08:28AM 32.6833 -96.7667 312° West 226 260 3,900 -1,020 Descending Dallas / Fort Worth TRACON
08:29AM 32.7333 -96.8000 331° Northwest 168 193 3,300 -480 Descending Dallas / Fort Worth TRACON
08:30AM 32.7500 -96.8333 301° West 150 173 3,000 -180 Descending Dallas / Fort Worth TRACON
08:31AM 32.7833 -96.8667 320° Northwest 155 178 3,000 -120 Level Dallas / Fort Worth TRACON
08:32AM 32.8167 -96.9000 320° Northwest 162 186 2,800 -600 Descending Dallas / Fort Worth TRACON
08:33AM 32.8500 -96.9500 308° West 154 177 1,800 -840 Descending Dallas / Fort Worth TRACON
08:34AM 32.8667 -96.9667 320° Northwest 113 130 1,200 -720 Descending Dallas / Fort Worth TRACON
08:36AM 32.8833 -97.0333 308° West  Level FlightAware Approximate
08:43AM 32.8968 -97.0380 308° West  Level Estimated